sensor_id;sensor_type;location;lat;lon;timestamp;P1;durP1;ratioP1;P2;durP2;ratioP2
54555;SDS011;57291;37.520;15.106;2023-04-01T00:00:07;10.10;;;3.10;;
54555;SDS011;57291;37.520;15.106;2023-04-01T00:02:39;14.10;;;2.88;;
54555;SDS011;57291;37.520;15.106;2023-04-01T00:05:07;7.57;;;2.83;;
54555;SDS011;57291;37.520;15.106;2023-04-01T00:07:37;11.15;;;3.08;;
54555;SDS011;57291;37.520;15.106;2023-04-01T00:10:05;9.75;;;2.92;;
54555;SDS011;57291;37.520;15.106;2023-04-01T00:12:34;10.65;;;3.10;;
54555;SDS011;57291;37.520;15.106;2023-04-01T00:15:02;10.38;;;2.90;;
54555;SDS011;57291;37.520;15.106;2023-04-01T00:17:30;10.15;;;2.83;;
54555;SDS011;57291;37.520;15.106;2023-04-01T00:19:58;9.98;;;2.60;;
54555;SDS011;57291;37.520;15.106;2023-04-01T00:22:25;7.57;;;2.72;;
54555;SDS011;57291;37.520;15.106;2023-04-01T00:24:53;11.13;;;2.95;;
54555;SDS011;57291;37.520;15.106;2023-04-01T00:27:21;8.85;;;3.03;;
54555;SDS011;57291;37.520;15.106;2023-04-01T00:29:48;11.20;;;2.65;;
54555;SDS011;57291;37.520;15.106;2023-04-01T00:32:15;8.98;;;2.50;;
54555;SDS011;57291;37.520;15.106;2023-04-01T00:34:42;11.18;;;2.92;;
54555;SDS011;57291;37.520;15.106;2023-04-01T00:37:10;12.38;;;3.08;;
54555;SDS011;57291;37.520;15.106;2023-04-01T00:39:38;9.95;;;2.92;;
54555;SDS011;57291;37.520;15.106;2023-04-01T00:42:05;8.50;;;2.80;;
54555;SDS011;57291;37.520;15.106;2023-04-01T00:44:33;16.25;;;3.30;;
54555;SDS011;57291;37.520;15.106;2023-04-01T00:47:01;11.60;;;2.97;;
54555;SDS011;57291;37.520;15.106;2023-04-01T00:49:32;10.75;;;2.83;;
54555;SDS011;57291;37.520;15.106;2023-04-01T00:52:03;7.63;;;2.70;;
54555;SDS011;57291;37.520;15.106;2023-04-01T00:54:32;11.63;;;2.67;;
54555;SDS011;57291;37.520;15.106;2023-04-01T00:57:15;10.60;;;2.70;;
54555;SDS011;57291;37.520;15.106;2023-04-01T00:59:48;15.57;;;3.30;;
54555;SDS011;57291;37.520;15.106;2023-04-01T01:02:19;13.20;;;3.25;;
54555;SDS011;57291;37.520;15.106;2023-04-01T01:04:47;11.38;;;2.80;;
54555;SDS011;57291;37.520;15.106;2023-04-01T01:07:27;11.60;;;2.72;;
54555;SDS011;57291;37.520;15.106;2023-04-01T01:10:52;13.88;;;2.95;;
54555;SDS011;57291;37.520;15.106;2023-04-01T01:13:36;12.30;;;2.88;;
54555;SDS011;57291;37.520;15.106;2023-04-01T01:16:18;11.32;;;3.08;;
54555;SDS011;57291;37.520;15.106;2023-04-01T01:24:28;12.23;;;2.83;;
54555;SDS011;57291;37.520;15.106;2023-04-01T01:27:16;9.30;;;2.80;;
54555;SDS011;57291;37.520;15.106;2023-04-01T01:37:59;11.63;;;2.80;;
54555;SDS011;57291;37.520;15.106;2023-04-01T01:40:31;16.15;;;3.40;;
54555;SDS011;57291;37.520;15.106;2023-04-01T01:43:02;13.40;;;2.80;;
54555;SDS011;57291;37.520;15.106;2023-04-01T01:45:33;12.73;;;2.83;;
54555;SDS011;57291;37.520;15.106;2023-04-01T01:48:05;14.82;;;3.13;;
54555;SDS011;57291;37.520;15.106;2023-04-01T01:50:36;11.10;;;3.00;;
54555;SDS011;57291;37.520;15.106;2023-04-01T01:53:11;11.60;;;2.65;;
54555;SDS011;57291;37.520;15.106;2023-04-01T01:55:41;11.68;;;3.35;;
54555;SDS011;57291;37.520;15.106;2023-04-01T01:58:11;13.13;;;3.03;;
54555;SDS011;57291;37.520;15.106;2023-04-01T02:00:45;10.77;;;3.03;;
54555;SDS011;57291;37.520;15.106;2023-04-01T02:03:19;8.93;;;3.35;;
54555;SDS011;57291;37.520;15.106;2023-04-01T02:05:48;10.85;;;2.97;;
54555;SDS011;57291;37.520;15.106;2023-04-01T02:08:20;13.45;;;3.17;;
54555;SDS011;57291;37.520;15.106;2023-04-01T02:10:59;15.10;;;3.47;;
54555;SDS011;57291;37.520;15.106;2023-04-01T02:13:51;14.20;;;3.20;;
54555;SDS011;57291;37.520;15.106;2023-04-01T02:16:24;12.68;;;3.25;;
54555;SDS011;57291;37.520;15.106;2023-04-01T02:18:56;8.93;;;3.00;;
54555;SDS011;57291;37.520;15.106;2023-04-01T02:21:27;13.85;;;3.20;;
54555;SDS011;57291;37.520;15.106;2023-04-01T02:23:58;7.65;;;3.10;;
54555;SDS011;57291;37.520;15.106;2023-04-01T02:26:28;10.70;;;3.25;;
54555;SDS011;57291;37.520;15.106;2023-04-01T02:28:56;13.18;;;2.90;;
54555;SDS011;57291;37.520;15.106;2023-04-01T02:31:28;13.10;;;3.20;;
54555;SDS011;57291;37.520;15.106;2023-04-01T02:33:55;8.65;;;2.70;;
54555;SDS011;57291;37.520;15.106;2023-04-01T02:36:23;11.68;;;3.17;;
54555;SDS011;57291;37.520;15.106;2023-04-01T02:38:50;11.55;;;3.10;;
54555;SDS011;57291;37.520;15.106;2023-04-01T02:41:21;13.18;;;3.25;;
54555;SDS011;57291;37.520;15.106;2023-04-01T02:43:48;8.52;;;2.83;;
54555;SDS011;57291;37.520;15.106;2023-04-01T02:46:15;11.32;;;2.63;;
54555;SDS011;57291;37.520;15.106;2023-04-01T02:48:43;12.68;;;3.10;;
54555;SDS011;57291;37.520;15.106;2023-04-01T02:51:10;12.18;;;3.00;;
54555;SDS011;57291;37.520;15.106;2023-04-01T02:53:37;11.32;;;2.92;;
54555;SDS011;57291;37.520;15.106;2023-04-01T02:56:04;13.45;;;3.47;;
54555;SDS011;57291;37.520;15.106;2023-04-01T02:58:32;7.65;;;2.70;;
54555;SDS011;57291;37.520;15.106;2023-04-01T03:00:59;10.50;;;3.10;;
54555;SDS011;57291;37.520;15.106;2023-04-01T03:03:26;14.00;;;3.10;;
54555;SDS011;57291;37.520;15.106;2023-04-01T03:05:53;13.30;;;3.00;;
54555;SDS011;57291;37.520;15.106;2023-04-01T03:08:22;16.13;;;3.78;;
54555;SDS011;57291;37.520;15.106;2023-04-01T03:10:50;11.65;;;2.92;;
54555;SDS011;57291;37.520;15.106;2023-04-01T03:13:17;13.82;;;2.85;;
54555;SDS011;57291;37.520;15.106;2023-04-01T03:15:44;12.80;;;2.80;;
54555;SDS011;57291;37.520;15.106;2023-04-01T03:18:11;10.85;;;2.80;;
54555;SDS011;57291;37.520;15.106;2023-04-01T03:20:38;11.57;;;2.75;;
54555;SDS011;57291;37.520;15.106;2023-04-01T03:23:06;9.85;;;2.28;;
54555;SDS011;57291;37.520;15.106;2023-04-01T03:25:34;11.07;;;2.88;;
54555;SDS011;57291;37.520;15.106;2023-04-01T03:28:02;10.77;;;2.55;;
54555;SDS011;57291;37.520;15.106;2023-04-01T03:30:29;9.30;;;2.88;;
54555;SDS011;57291;37.520;15.106;2023-04-01T03:32:58;12.57;;;2.88;;
54555;SDS011;57291;37.520;15.106;2023-04-01T03:35:26;8.60;;;2.75;;
54555;SDS011;57291;37.520;15.106;2023-04-01T03:37:54;9.27;;;2.70;;
54555;SDS011;57291;37.520;15.106;2023-04-01T03:40:21;14.30;;;2.72;;
54555;SDS011;57291;37.520;15.106;2023-04-01T03:42:49;6.43;;;2.60;;
54555;SDS011;57291;37.520;15.106;2023-04-01T03:45:17;8.90;;;2.40;;
54555;SDS011;57291;37.520;15.106;2023-04-01T03:47:44;13.15;;;2.80;;
54555;SDS011;57291;37.520;15.106;2023-04-01T03:50:11;7.75;;;2.60;;
54555;SDS011;57291;37.520;15.106;2023-04-01T03:52:39;17.45;;;3.20;;
54555;SDS011;57291;37.520;15.106;2023-04-01T03:55:06;9.65;;;2.25;;
54555;SDS011;57291;37.520;15.106;2023-04-01T03:57:35;10.50;;;2.97;;
54555;SDS011;57291;37.520;15.106;2023-04-01T04:00:14;8.40;;;2.35;;
54555;SDS011;57291;37.520;15.106;2023-04-01T04:02:44;11.13;;;2.85;;
54555;SDS011;57291;37.520;15.106;2023-04-01T04:05:17;6.35;;;2.95;;
54555;SDS011;57291;37.520;15.106;2023-04-01T04:07:44;12.05;;;2.95;;
54555;SDS011;57291;37.520;15.106;2023-04-01T04:10:11;8.25;;;2.50;;
54555;SDS011;57291;37.520;15.106;2023-04-01T04:12:38;10.88;;;2.92;;
54555;SDS011;57291;37.520;15.106;2023-04-01T04:15:07;8.50;;;2.63;;
54555;SDS011;57291;37.520;15.106;2023-04-01T04:17:35;8.73;;;3.15;;
54555;SDS011;57291;37.520;15.106;2023-04-01T04:20:03;13.40;;;3.08;;
54555;SDS011;57291;37.520;15.106;2023-04-01T04:22:30;9.98;;;2.80;;
54555;SDS011;57291;37.520;15.106;2023-04-01T04:24:58;10.93;;;3.10;;
54555;SDS011;57291;37.520;15.106;2023-04-01T04:27:25;11.60;;;2.70;;
54555;SDS011;57291;37.520;15.106;2023-04-01T04:30:05;11.05;;;2.97;;
54555;SDS011;57291;37.520;15.106;2023-04-01T04:32:33;11.10;;;2.83;;
54555;SDS011;57291;37.520;15.106;2023-04-01T04:35:01;11.02;;;2.70;;
54555;SDS011;57291;37.520;15.106;2023-04-01T04:37:28;17.15;;;2.90;;
54555;SDS011;57291;37.520;15.106;2023-04-01T04:39:55;6.18;;;2.78;;
54555;SDS011;57291;37.520;15.106;2023-04-01T04:42:23;12.20;;;2.80;;
54555;SDS011;57291;37.520;15.106;2023-04-01T04:44:55;12.95;;;3.20;;
54555;SDS011;57291;37.520;15.106;2023-04-01T04:47:22;10.90;;;2.97;;
54555;SDS011;57291;37.520;15.106;2023-04-01T04:49:49;7.63;;;2.95;;
54555;SDS011;57291;37.520;15.106;2023-04-01T04:52:17;9.55;;;2.70;;
54555;SDS011;57291;37.520;15.106;2023-04-01T04:54:45;8.48;;;2.60;;
54555;SDS011;57291;37.520;15.106;2023-04-01T04:57:12;13.13;;;3.40;;
54555;SDS011;57291;37.520;15.106;2023-04-01T04:59:45;8.43;;;2.70;;
54555;SDS011;57291;37.520;15.106;2023-04-01T05:02:18;10.15;;;3.00;;
54555;SDS011;57291;37.520;15.106;2023-04-01T05:04:46;8.40;;;2.80;;
54555;SDS011;57291;37.520;15.106;2023-04-01T05:07:13;9.93;;;3.00;;
54555;SDS011;57291;37.520;15.106;2023-04-01T05:09:41;11.50;;;2.83;;
54555;SDS011;57291;37.520;15.106;2023-04-01T05:12:08;9.20;;;3.22;;
54555;SDS011;57291;37.520;15.106;2023-04-01T05:14:57;8.27;;;3.17;;
54555;SDS011;57291;37.520;15.106;2023-04-01T05:17:24;13.68;;;4.10;;
54555;SDS011;57291;37.520;15.106;2023-04-01T05:19:52;16.05;;;3.22;;
54555;SDS011;57291;37.520;15.106;2023-04-01T05:22:21;9.00;;;2.92;;
54555;SDS011;57291;37.520;15.106;2023-04-01T05:24:49;10.25;;;2.70;;
54555;SDS011;57291;37.520;15.106;2023-04-01T05:27:16;16.23;;;2.85;;
54555;SDS011;57291;37.520;15.106;2023-04-01T05:29:44;9.70;;;2.60;;
54555;SDS011;57291;37.520;15.106;2023-04-01T05:32:34;8.20;;;2.92;;
54555;SDS011;57291;37.520;15.106;2023-04-01T05:35:02;10.00;;;2.63;;
54555;SDS011;57291;37.520;15.106;2023-04-01T05:37:29;10.05;;;2.70;;
54555;SDS011;57291;37.520;15.106;2023-04-01T05:39:56;7.28;;;2.47;;
54555;SDS011;57291;37.520;15.106;2023-04-01T05:42:25;9.50;;;2.90;;
54555;SDS011;57291;37.520;15.106;2023-04-01T05:44:53;7.72;;;2.88;;
54555;SDS011;57291;37.520;15.106;2023-04-01T05:47:39;9.20;;;2.90;;
54555;SDS011;57291;37.520;15.106;2023-04-01T05:50:06;9.75;;;3.50;;
54555;SDS011;57291;37.520;15.106;2023-04-01T05:52:33;8.75;;;2.83;;
54555;SDS011;57291;37.520;15.106;2023-04-01T05:55:00;11.98;;;3.20;;
54555;SDS011;57291;37.520;15.106;2023-04-01T05:57:30;12.02;;;3.10;;
54555;SDS011;57291;37.520;15.106;2023-04-01T05:59:57;13.73;;;3.33;;
54555;SDS011;57291;37.520;15.106;2023-04-01T06:02:24;9.93;;;2.85;;
54555;SDS011;57291;37.520;15.106;2023-04-01T06:04:54;8.82;;;3.05;;
54555;SDS011;57291;37.520;15.106;2023-04-01T06:07:38;9.00;;;3.42;;
54555;SDS011;57291;37.520;15.106;2023-04-01T06:10:13;12.95;;;4.10;;
54555;SDS011;57291;37.520;15.106;2023-04-01T06:32:38;10.73;;;3.20;;
54555;SDS011;57291;37.520;15.106;2023-04-01T06:35:38;14.45;;;3.53;;
54555;SDS011;57291;37.520;15.106;2023-04-01T06:38:19;12.10;;;3.40;;
54555;SDS011;57291;37.520;15.106;2023-04-01T06:43:33;14.18;;;3.88;;
54555;SDS011;57291;37.520;15.106;2023-04-01T06:55:57;8.73;;;3.55;;
54555;SDS011;57291;37.520;15.106;2023-04-01T07:07:13;12.38;;;4.18;;
54555;SDS011;57291;37.520;15.106;2023-04-01T07:09:58;15.88;;;4.70;;
54555;SDS011;57291;37.520;15.106;2023-04-01T07:12:33;13.25;;;3.42;;
54555;SDS011;57291;37.520;15.106;2023-04-01T07:15:54;18.15;;;4.40;;
54555;SDS011;57291;37.520;15.106;2023-04-01T07:21:47;13.38;;;4.20;;
54555;SDS011;57291;37.520;15.106;2023-04-01T07:24:39;14.52;;;4.10;;
54555;SDS011;57291;37.520;15.106;2023-04-01T07:27:11;11.48;;;4.40;;
54555;SDS011;57291;37.520;15.106;2023-04-01T07:29:41;12.73;;;3.88;;
54555;SDS011;57291;37.520;15.106;2023-04-01T07:43:25;14.02;;;4.38;;
54555;SDS011;57291;37.520;15.106;2023-04-01T07:46:29;17.15;;;4.25;;
54555;SDS011;57291;37.520;15.106;2023-04-01T07:49:08;12.98;;;4.00;;
54555;SDS011;57291;37.520;15.106;2023-04-01T08:06:25;13.13;;;3.97;;
54555;SDS011;57291;37.520;15.106;2023-04-01T08:09:03;13.30;;;4.78;;
54555;SDS011;57291;37.520;15.106;2023-04-01T08:12:13;12.48;;;4.20;;
54555;SDS011;57291;37.520;15.106;2023-04-01T08:18:27;14.05;;;4.38;;
54555;SDS011;57291;37.520;15.106;2023-04-01T08:21:03;10.55;;;4.20;;
54555;SDS011;57291;37.520;15.106;2023-04-01T08:24:07;11.10;;;4.40;;
54555;SDS011;57291;37.520;15.106;2023-04-01T08:26:48;14.07;;;4.30;;
54555;SDS011;57291;37.520;15.106;2023-04-01T08:32:27;10.82;;;4.50;;
54555;SDS011;57291;37.520;15.106;2023-04-01T08:38:19;16.80;;;4.75;;
54555;SDS011;57291;37.520;15.106;2023-04-01T08:40:59;9.05;;;4.75;;
54555;SDS011;57291;37.520;15.106;2023-04-01T08:44:20;12.00;;;4.65;;
54555;SDS011;57291;37.520;15.106;2023-04-01T08:53:03;9.25;;;4.70;;
54555;SDS011;57291;37.520;15.106;2023-04-01T08:55:56;11.75;;;4.97;;
54555;SDS011;57291;37.520;15.106;2023-04-01T08:59:05;11.23;;;4.88;;
54555;SDS011;57291;37.520;15.106;2023-04-01T09:16:40;12.07;;;5.03;;
54555;SDS011;57291;37.520;15.106;2023-04-01T09:22:23;12.13;;;4.53;;
54555;SDS011;57291;37.520;15.106;2023-04-01T09:31:01;7.95;;;4.40;;
54555;SDS011;57291;37.520;15.106;2023-04-01T09:36:44;18.25;;;4.80;;
54555;SDS011;57291;37.520;15.106;2023-04-01T09:39:23;14.13;;;4.85;;
54555;SDS011;57291;37.520;15.106;2023-04-01T09:45:29;13.52;;;4.78;;
54555;SDS011;57291;37.520;15.106;2023-04-01T09:54:05;10.40;;;4.53;;
54555;SDS011;57291;37.520;15.106;2023-04-01T10:08:12;12.38;;;5.03;;
54555;SDS011;57291;37.520;15.106;2023-04-01T10:54:58;9.40;;;4.70;;
54555;SDS011;57291;37.520;15.106;2023-04-01T11:11:01;7.93;;;4.53;;
54555;SDS011;57291;37.520;15.106;2023-04-01T11:13:59;12.52;;;4.60;;
54555;SDS011;57291;37.520;15.106;2023-04-01T11:51:10;14.88;;;4.72;;
54555;SDS011;57291;37.520;15.106;2023-04-01T12:03:02;12.10;;;5.93;;
54555;SDS011;57291;37.520;15.106;2023-04-01T12:05:53;14.88;;;5.10;;
54555;SDS011;57291;37.520;15.106;2023-04-01T12:08:33;13.98;;;5.18;;
54555;SDS011;57291;37.520;15.106;2023-04-01T12:11:16;12.48;;;4.80;;
54555;SDS011;57291;37.520;15.106;2023-04-01T12:19:31;18.90;;;5.38;;
54555;SDS011;57291;37.520;15.106;2023-04-01T12:41:57;12.93;;;4.30;;
54555;SDS011;57291;37.520;15.106;2023-04-01T12:44:29;11.63;;;4.97;;
54555;SDS011;57291;37.520;15.106;2023-04-01T12:59:57;10.02;;;4.22;;
54555;SDS011;57291;37.520;15.106;2023-04-01T13:07:36;15.23;;;4.28;;
54555;SDS011;57291;37.520;15.106;2023-04-01T13:13:10;14.45;;;4.53;;
54555;SDS011;57291;37.520;15.106;2023-04-01T13:15:47;11.85;;;4.40;;
54555;SDS011;57291;37.520;15.106;2023-04-01T13:18:25;11.30;;;4.85;;
54555;SDS011;57291;37.520;15.106;2023-04-01T13:21:22;14.32;;;4.75;;
54555;SDS011;57291;37.520;15.106;2023-04-01T13:29:31;10.82;;;4.35;;
54555;SDS011;57291;37.520;15.106;2023-04-01T13:32:50;11.55;;;4.40;;
54555;SDS011;57291;37.520;15.106;2023-04-01T13:41:01;13.30;;;4.97;;
54555;SDS011;57291;37.520;15.106;2023-04-01T13:52:46;11.82;;;4.70;;
54555;SDS011;57291;37.520;15.106;2023-04-01T14:03:37;8.35;;;4.18;;
54555;SDS011;57291;37.520;15.106;2023-04-01T14:14:36;12.63;;;4.50;;
54555;SDS011;57291;37.520;15.106;2023-04-01T14:17:36;9.55;;;4.20;;
54555;SDS011;57291;37.520;15.106;2023-04-01T14:20:25;9.70;;;4.57;;
54555;SDS011;57291;37.520;15.106;2023-04-01T14:23:15;14.35;;;4.70;;
54555;SDS011;57291;37.520;15.106;2023-04-01T14:39:38;12.10;;;4.80;;
54555;SDS011;57291;37.520;15.106;2023-04-01T14:42:26;11.05;;;4.40;;
54555;SDS011;57291;37.520;15.106;2023-04-01T14:47:48;10.05;;;3.78;;
54555;SDS011;57291;37.520;15.106;2023-04-01T14:50:22;9.05;;;4.15;;
54555;SDS011;57291;37.520;15.106;2023-04-01T14:53:11;13.13;;;4.72;;
54555;SDS011;57291;37.520;15.106;2023-04-01T14:58:10;12.65;;;4.32;;
54555;SDS011;57291;37.520;15.106;2023-04-01T15:03:15;9.38;;;4.20;;
54555;SDS011;57291;37.520;15.106;2023-04-01T15:05:52;10.10;;;3.92;;
54555;SDS011;57291;37.520;15.106;2023-04-01T15:11:31;10.15;;;3.55;;
54555;SDS011;57291;37.520;15.106;2023-04-01T15:25:49;12.98;;;3.95;;
54555;SDS011;57291;37.520;15.106;2023-04-01T15:28:42;16.50;;;4.25;;
54555;SDS011;57291;37.520;15.106;2023-04-01T15:34:42;11.15;;;4.35;;
54555;SDS011;57291;37.520;15.106;2023-04-01T15:40:23;11.43;;;4.30;;
54555;SDS011;57291;37.520;15.106;2023-04-01T15:43:05;10.75;;;4.38;;
54555;SDS011;57291;37.520;15.106;2023-04-01T16:18:59;16.38;;;4.82;;
54555;SDS011;57291;37.520;15.106;2023-04-01T16:27:00;12.57;;;4.00;;
54555;SDS011;57291;37.520;15.106;2023-04-01T16:32:34;9.70;;;4.43;;
54555;SDS011;57291;37.520;15.106;2023-04-01T16:35:23;10.63;;;4.25;;
54555;SDS011;57291;37.520;15.106;2023-04-01T16:43:49;11.85;;;4.45;;
54555;SDS011;57291;37.520;15.106;2023-04-01T17:02:31;18.00;;;5.00;;
54555;SDS011;57291;37.520;15.106;2023-04-01T17:10:36;21.02;;;5.30;;
54555;SDS011;57291;37.520;15.106;2023-04-01T17:18:58;18.33;;;5.55;;
54555;SDS011;57291;37.520;15.106;2023-04-01T17:29:57;15.70;;;5.20;;
54555;SDS011;57291;37.520;15.106;2023-04-01T17:32:50;29.63;;;7.57;;
54555;SDS011;57291;37.520;15.106;2023-04-01T17:35:33;19.77;;;5.85;;
54555;SDS011;57291;37.520;15.106;2023-04-01T17:52:28;26.63;;;6.47;;
54555;SDS011;57291;37.520;15.106;2023-04-01T17:55:48;24.23;;;6.47;;
54555;SDS011;57291;37.520;15.106;2023-04-01T17:58:22;23.45;;;6.28;;
54555;SDS011;57291;37.520;15.106;2023-04-01T18:09:45;25.30;;;6.85;;
54555;SDS011;57291;37.520;15.106;2023-04-01T18:21:36;18.27;;;6.50;;
54555;SDS011;57291;37.520;15.106;2023-04-01T18:24:33;23.60;;;6.70;;
54555;SDS011;57291;37.520;15.106;2023-04-01T18:30:37;21.48;;;6.32;;
54555;SDS011;57291;37.520;15.106;2023-04-01T18:33:24;20.17;;;7.40;;
54555;SDS011;57291;37.520;15.106;2023-04-01T18:36:09;28.80;;;7.65;;
54555;SDS011;57291;37.520;15.106;2023-04-01T18:38:54;31.13;;;8.88;;
54555;SDS011;57291;37.520;15.106;2023-04-01T18:44:31;25.83;;;8.13;;
54555;SDS011;57291;37.520;15.106;2023-04-01T18:52:23;33.55;;;8.27;;
54555;SDS011;57291;37.520;15.106;2023-04-01T19:00:34;25.63;;;7.28;;
54555;SDS011;57291;37.520;15.106;2023-04-01T19:03:10;19.73;;;6.72;;
54555;SDS011;57291;37.520;15.106;2023-04-01T19:05:46;22.55;;;6.90;;
54555;SDS011;57291;37.520;15.106;2023-04-01T19:08:50;24.98;;;7.60;;
54555;SDS011;57291;37.520;15.106;2023-04-01T19:14:00;22.05;;;7.90;;
54555;SDS011;57291;37.520;15.106;2023-04-01T19:27:25;22.52;;;6.90;;
54555;SDS011;57291;37.520;15.106;2023-04-01T19:32:52;27.73;;;7.88;;
54555;SDS011;57291;37.520;15.106;2023-04-01T19:35:35;25.50;;;7.82;;
54555;SDS011;57291;37.520;15.106;2023-04-01T19:38:15;21.23;;;7.65;;
54555;SDS011;57291;37.520;15.106;2023-04-01T19:40:53;22.73;;;7.38;;
54555;SDS011;57291;37.520;15.106;2023-04-01T19:46:23;24.27;;;8.32;;
54555;SDS011;57291;37.520;15.106;2023-04-01T19:49:41;19.80;;;7.13;;
54555;SDS011;57291;37.520;15.106;2023-04-01T19:52:09;21.65;;;7.57;;
54555;SDS011;57291;37.520;15.106;2023-04-01T19:55:39;20.20;;;7.00;;
54555;SDS011;57291;37.520;15.106;2023-04-01T19:58:15;17.10;;;6.68;;
54555;SDS011;57291;37.520;15.106;2023-04-01T20:01:00;20.83;;;6.70;;
54555;SDS011;57291;37.520;15.106;2023-04-01T20:03:45;25.65;;;7.07;;
54555;SDS011;57291;37.520;15.106;2023-04-01T20:06:31;22.55;;;7.47;;
54555;SDS011;57291;37.520;15.106;2023-04-01T20:14:40;16.10;;;6.38;;
54555;SDS011;57291;37.520;15.106;2023-04-01T20:19:49;25.83;;;11.13;;
54555;SDS011;57291;37.520;15.106;2023-04-01T20:24:58;24.98;;;7.00;;
54555;SDS011;57291;37.520;15.106;2023-04-01T20:27:32;19.92;;;7.18;;
54555;SDS011;57291;37.520;15.106;2023-04-01T20:39:32;26.58;;;7.00;;
54555;SDS011;57291;37.520;15.106;2023-04-01T20:42:14;16.30;;;7.03;;
54555;SDS011;57291;37.520;15.106;2023-04-01T20:51:06;26.60;;;7.55;;
54555;SDS011;57291;37.520;15.106;2023-04-01T20:54:02;21.60;;;7.55;;
54555;SDS011;57291;37.520;15.106;2023-04-01T20:56:47;30.23;;;8.57;;
54555;SDS011;57291;37.520;15.106;2023-04-01T21:13:29;23.88;;;8.23;;
54555;SDS011;57291;37.520;15.106;2023-04-01T21:22:06;28.65;;;8.35;;
54555;SDS011;57291;37.520;15.106;2023-04-01T21:44:20;23.95;;;7.93;;
54555;SDS011;57291;37.520;15.106;2023-04-01T22:06:45;34.50;;;14.20;;
54555;SDS011;57291;37.520;15.106;2023-04-01T22:09:25;20.63;;;8.60;;
54555;SDS011;57291;37.520;15.106;2023-04-01T22:15:23;24.05;;;7.20;;
54555;SDS011;57291;37.520;15.106;2023-04-01T22:17:35;23.38;;;7.95;;
54555;SDS011;57291;37.520;15.106;2023-04-01T22:20:27;19.05;;;8.00;;
54555;SDS011;57291;37.520;15.106;2023-04-01T22:25:51;26.30;;;8.15;;
54555;SDS011;57291;37.520;15.106;2023-04-01T22:28:32;18.10;;;7.82;;
54555;SDS011;57291;37.520;15.106;2023-04-01T22:31:09;15.95;;;7.05;;
54555;SDS011;57291;37.520;15.106;2023-04-01T22:36:19;15.43;;;7.40;;
54555;SDS011;57291;37.520;15.106;2023-04-01T22:50:39;23.73;;;7.50;;
54555;SDS011;57291;37.520;15.106;2023-04-01T22:53:17;21.63;;;8.23;;
54555;SDS011;57291;37.520;15.106;2023-04-01T22:55:49;22.13;;;7.40;;
54555;SDS011;57291;37.520;15.106;2023-04-01T22:58:21;18.15;;;7.90;;
54555;SDS011;57291;37.520;15.106;2023-04-01T23:01:01;21.00;;;7.05;;
54555;SDS011;57291;37.520;15.106;2023-04-01T23:03:35;22.77;;;7.95;;
54555;SDS011;57291;37.520;15.106;2023-04-01T23:06:08;19.77;;;7.05;;
54555;SDS011;57291;37.520;15.106;2023-04-01T23:12:04;22.23;;;7.85;;
54555;SDS011;57291;37.520;15.106;2023-04-01T23:17:12;23.70;;;8.45;;
54555;SDS011;57291;37.520;15.106;2023-04-01T23:28:44;19.23;;;7.07;;
54555;SDS011;57291;37.520;15.106;2023-04-01T23:36:40;14.75;;;6.72;;
54555;SDS011;57291;37.520;15.106;2023-04-01T23:41:46;17.35;;;5.90;;
54555;SDS011;57291;37.520;15.106;2023-04-01T23:44:14;16.98;;;6.72;;
54555;SDS011;57291;37.520;15.106;2023-04-01T23:46:44;16.52;;;6.55;;
54555;SDS011;57291;37.520;15.106;2023-04-01T23:49:19;15.88;;;6.25;;
54555;SDS011;57291;37.520;15.106;2023-04-01T23:51:56;11.88;;;5.20;;
54555;SDS011;57291;37.520;15.106;2023-04-01T23:57:04;14.73;;;5.80;;
54555;SDS011;57291;37.520;15.106;2023-04-01T23:59:37;16.42;;;5.25;;
